Time;durP1;ratioP1;P1;durP2;ratioP2;P2;SDS_P1;SDS_P2;PMS_P1;PMS_P2;Temp;Humidity;BMP_temperature;BMP_pressure;BME280_temperature;BME280_humidity;BME280_pressure;Samples;Min_cycle;Max_cycle;Signal;HPM_P1;HPM_P2
2023/10/11 00:00:45;;;;;;;19.83;9.20;;;11.10;99.90;;;;;;4968471;28;20918;-69
2023/10/11 00:03:16;;;;;;;23.00;9.23;;;11.10;99.90;;;;;;4970191;28;20502;-69
2023/10/11 00:05:47;;;;;;;17.77;8.77;;;11.00;99.90;;;;;;4970228;28;20796;-69
2023/10/11 00:08:18;;;;;;;17.80;9.17;;;11.00;99.90;;;;;;4970156;28;20453;-70
2023/10/11 00:10:49;;;;;;;16.13;8.10;;;11.00;99.90;;;;;;4969947;28;20483;-69
2023/10/11 00:13:18;;;;;;;18.60;9.00;;;11.00;99.90;;;;;;4970079;28;20471;-70
2023/10/11 00:15:49;;;;;;;22.73;8.33;;;10.90;99.90;;;;;;4970196;28;20876;-71
2023/10/11 00:18:19;;;;;;;20.23;10.03;;;10.90;99.90;;;;;;4970223;28;20534;-69
2023/10/11 00:20:51;;;;;;;20.90;9.90;;;10.80;99.90;;;;;;4970506;28;20535;-68
2023/10/11 00:23:22;;;;;;;20.83;8.40;;;10.90;99.90;;;;;;4970148;28;20901;-68
2023/10/11 00:25:51;;;;;;;19.03;9.23;;;10.80;99.90;;;;;;4969959;28;20549;-69
2023/10/11 00:28:23;;;;;;;22.83;10.27;;;10.80;99.90;;;;;;4969871;28;20444;-69
2023/10/11 00:30:56;;;;;;;19.93;8.50;;;10.80;99.90;;;;;;4969734;28;20461;-70
2023/10/11 00:33:25;;;;;;;19.53;7.43;;;10.70;99.90;;;;;;4970219;28;20462;-68
2023/10/11 00:36:08;;;;;;;20.13;8.60;;;10.80;99.90;;;;;;4970147;28;20469;-69
2023/10/11 00:38:47;;;;;;;21.00;8.40;;;10.80;99.90;;;;;;4970209;28;20464;-69
2023/10/11 00:41:17;;;;;;;20.57;9.00;;;10.90;99.90;;;;;;4969513;28;20559;-69
2023/10/11 00:43:50;;;;;;;23.00;9.10;;;11.00;99.90;;;;;;4970309;28;20469;-69
2023/10/11 00:46:20;;;;;;;18.03;8.67;;;11.10;99.90;;;;;;4968435;28;21020;-69
2023/10/11 00:48:54;;;;;;;19.87;9.73;;;11.30;99.90;;;;;;4970014;28;20450;-69
2023/10/11 00:51:29;;;;;;;19.47;9.93;;;11.30;99.90;;;;;;4969614;28;20453;-70
2023/10/11 00:53:58;;;;;;;20.23;9.33;;;11.40;99.90;;;;;;4969665;28;20501;-69
2023/10/11 00:56:31;;;;;;;20.00;9.03;;;11.60;99.90;;;;;;4968628;28;20503;-70
2023/10/11 00:59:01;;;;;;;20.00;9.43;;;11.70;99.90;;;;;;4967990;28;20457;-70
2023/10/11 01:01:29;;;;;;;19.60;9.10;;;11.80;99.90;;;;;;4964664;28;20454;-69
2023/10/11 01:03:57;;;;;;;17.53;9.00;;;11.80;99.90;;;;;;4969378;28;21041;-68
2023/10/11 01:06:28;;;;;;;24.63;9.27;;;11.90;99.90;;;;;;4969085;28;20486;-69
2023/10/11 01:08:56;;;;;;;18.47;9.50;;;12.00;99.90;;;;;;4969514;28;20451;-70
2023/10/11 01:11:26;;;;;;;18.00;9.43;;;12.00;99.90;;;;;;4969047;28;20518;-70
2023/10/11 01:13:54;;;;;;;22.07;9.20;;;12.00;99.90;;;;;;4969535;28;21009;-69
2023/10/11 01:16:26;;;;;;;20.67;9.30;;;12.00;99.90;;;;;;4969480;28;20441;-69
2023/10/11 01:18:55;;;;;;;17.00;8.30;;;12.00;99.90;;;;;;4969825;28;20528;-69
2023/10/11 01:21:27;;;;;;;21.27;8.80;;;11.90;99.90;;;;;;4969066;28;20517;-70
2023/10/11 01:23:57;;;;;;;18.97;9.00;;;11.90;99.90;;;;;;4969559;28;20936;-68
2023/10/11 01:26:27;;;;;;;19.10;7.90;;;11.80;99.90;;;;;;4969480;28;20488;-69
2023/10/11 01:28:56;;;;;;;19.53;8.40;;;11.70;99.90;;;;;;4969705;28;21123;-68
2023/10/11 01:31:24;;;;;;;19.63;10.37;;;11.70;99.90;;;;;;4969279;28;20865;-69
2023/10/11 01:33:52;;;;;;;22.93;8.80;;;11.70;99.90;;;;;;4969294;28;20998;-70
2023/10/11 01:36:21;;;;;;;20.10;8.80;;;11.70;99.90;;;;;;4969280;28;20451;-69
2023/10/11 01:38:51;;;;;;;30.43;10.63;;;11.70;99.90;;;;;;4969005;28;20463;-69
2023/10/11 01:41:21;;;;;;;22.03;8.70;;;11.80;99.90;;;;;;4968887;28;20972;-69
2023/10/11 01:43:50;;;;;;;22.30;8.70;;;11.70;99.90;;;;;;4970243;28;20542;-69
2023/10/11 01:46:24;;;;;;;20.13;8.67;;;11.70;99.90;;;;;;4970006;28;20441;-68
2023/10/11 01:48:53;;;;;;;28.00;9.43;;;11.70;99.90;;;;;;4969651;28;20473;-69
2023/10/11 01:51:26;;;;;;;17.27;8.53;;;11.70;99.90;;;;;;4969090;28;20459;-70
2023/10/11 01:53:57;;;;;;;19.33;10.10;;;11.60;99.90;;;;;;4968971;28;20479;-69
2023/10/11 01:56:26;;;;;;;21.80;7.97;;;11.60;99.90;;;;;;4969245;28;20462;-69
2023/10/11 01:58:56;;;;;;;20.67;8.60;;;11.50;99.90;;;;;;4969191;28;20454;-69
2023/10/11 02:01:27;;;;;;;19.27;8.77;;;11.50;99.90;;;;;;4968368;28;21077;-68
2023/10/11 02:03:59;;;;;;;18.63;8.03;;;11.50;99.90;;;;;;4971030;28;20472;-69
2023/10/11 02:06:31;;;;;;;16.93;8.17;;;11.50;99.90;;;;;;4972322;28;20888;-69
2023/10/11 02:09:02;;;;;;;17.77;8.40;;;11.50;99.90;;;;;;4972491;28;21376;-69
2023/10/11 02:11:30;;;;;;;19.17;9.90;;;11.40;99.90;;;;;;4972224;28;20459;-69
2023/10/11 02:13:59;;;;;;;17.73;8.20;;;11.40;99.90;;;;;;4972515;28;20479;-69
2023/10/11 02:16:28;;;;;;;21.63;9.07;;;11.30;99.90;;;;;;4972569;28;20949;-68
2023/10/11 02:18:59;;;;;;;21.33;8.60;;;11.30;99.90;;;;;;4972410;28;20439;-69
2023/10/11 02:21:29;;;;;;;18.57;9.40;;;11.40;99.90;;;;;;4972091;28;20646;-69
2023/10/11 02:23:58;;;;;;;18.57;8.03;;;11.30;99.90;;;;;;4972324;28;21157;-69
2023/10/11 02:26:29;;;;;;;16.67;9.07;;;11.30;99.90;;;;;;4972386;28;20482;-69
2023/10/11 02:29:00;;;;;;;19.47;9.27;;;11.30;99.90;;;;;;4972273;28;20486;-69
2023/10/11 02:31:31;;;;;;;19.73;10.53;;;11.30;99.90;;;;;;4972099;28;20454;-68
2023/10/11 02:34:12;;;;;;;20.90;9.03;;;11.40;99.90;;;;;;4972466;28;20662;-69
2023/10/11 02:36:42;;;;;;;21.23;8.57;;;11.40;99.90;;;;;;4972313;28;20533;-69
2023/10/11 02:39:17;;;;;;;20.53;8.87;;;11.40;99.90;;;;;;4972284;28;20804;-69
2023/10/11 02:41:50;;;;;;;21.03;9.13;;;11.50;99.90;;;;;;4971984;28;20546;-69
2023/10/11 02:44:22;;;;;;;16.30;7.77;;;11.40;99.90;;;;;;4971826;28;20465;-68
2023/10/11 02:46:51;;;;;;;19.50;9.57;;;11.40;99.90;;;;;;4972246;28;20501;-69
2023/10/11 02:49:22;;;;;;;19.47;8.20;;;11.50;99.90;;;;;;4972039;28;20524;-68
2023/10/11 02:51:55;;;;;;;18.10;9.17;;;11.50;99.90;;;;;;4971649;28;21058;-68
2023/10/11 02:54:26;;;;;;;19.77;9.00;;;11.40;99.90;;;;;;4971954;28;20506;-68
2023/10/11 02:56:57;;;;;;;19.40;9.33;;;11.40;99.90;;;;;;4972015;28;20445;-70
2023/10/11 02:59:25;;;;;;;22.77;10.17;;;11.40;99.90;;;;;;4969952;28;20511;-68
2023/10/11 03:02:00;;;;;;;20.00;8.77;;;11.30;99.90;;;;;;4971143;28;20566;-69
2023/10/11 03:04:32;;;;;;;17.07;7.90;;;11.20;99.90;;;;;;4971603;28;21169;-69
2023/10/11 03:07:01;;;;;;;19.93;10.53;;;11.10;99.90;;;;;;4971579;28;21342;-68
2023/10/11 03:09:29;;;;;;;16.93;8.00;;;11.10;99.90;;;;;;4971747;28;20820;-70
2023/10/11 03:12:05;;;;;;;18.00;8.07;;;11.10;99.90;;;;;;4970892;28;20450;-68
2023/10/11 03:14:41;;;;;;;22.10;9.60;;;11.10;99.90;;;;;;4970530;28;20905;-68
2023/10/11 03:17:13;;;;;;;23.13;9.57;;;11.00;99.90;;;;;;4971263;28;21135;-70
2023/10/11 03:19:43;;;;;;;19.87;8.70;;;11.10;99.90;;;;;;4971564;28;20509;-70
2023/10/11 03:22:19;;;;;;;17.30;9.10;;;11.20;99.90;;;;;;4970792;28;20546;-69
2023/10/11 03:24:54;;;;;;;18.23;9.00;;;11.20;99.90;;;;;;4971612;28;20444;-70
2023/10/11 03:27:24;;;;;;;18.07;8.67;;;11.10;99.90;;;;;;4971446;28;20458;-69
2023/10/11 03:29:53;;;;;;;30.73;10.13;;;11.10;99.90;;;;;;4971405;28;20446;-68
2023/10/11 03:32:25;;;;;;;21.57;9.47;;;11.00;99.90;;;;;;4970551;28;20451;-69
2023/10/11 03:34:54;;;;;;;21.67;8.90;;;10.90;99.90;;;;;;4971306;28;20831;-70
2023/10/11 03:37:22;;;;;;;18.90;9.93;;;10.90;99.90;;;;;;4970963;28;20453;-68
2023/10/11 03:39:56;;;;;;;17.70;8.70;;;10.90;99.90;;;;;;4970980;28;20474;-68
2023/10/11 03:45:08;;;;;;;18.90;7.80;;;10.90;99.90;;;;;;4971305;28;20445;-67
2023/10/11 03:47:38;;;;;;;21.17;9.40;;;10.90;99.90;;;;;;4971001;28;20458;-68
2023/10/11 03:50:11;;;;;;;16.63;8.60;;;10.80;99.90;;;;;;4971164;28;20984;-67
2023/10/11 03:52:40;;;;;;;21.80;8.30;;;10.80;99.90;;;;;;4970342;28;20562;-68
2023/10/11 03:55:10;;;;;;;22.03;8.73;;;10.70;99.90;;;;;;4971293;28;20540;-69
2023/10/11 03:57:41;;;;;;;21.27;9.53;;;10.60;99.90;;;;;;4971362;28;20459;-69
2023/10/11 04:00:24;;;;;;;19.77;9.10;;;10.50;99.90;;;;;;4970623;28;20468;-69
2023/10/11 04:02:56;;;;;;;17.20;8.73;;;10.60;99.90;;;;;;4970478;28;20839;-69
2023/10/11 04:05:29;;;;;;;19.43;7.80;;;10.60;99.90;;;;;;4970750;28;20489;-70
2023/10/11 04:07:57;;;;;;;19.97;8.50;;;10.60;99.90;;;;;;4970667;28;20521;-70
2023/10/11 04:10:39;;;;;;;17.50;8.70;;;10.70;99.90;;;;;;4968510;28;20448;-72
2023/10/11 04:13:14;;;;;;;17.87;8.67;;;10.60;99.90;;;;;;4970088;28;20457;-68
2023/10/11 04:15:42;;;;;;;20.70;9.37;;;10.70;99.90;;;;;;4970482;28;20535;-67
2023/10/11 04:18:15;;;;;;;18.60;7.90;;;10.70;99.90;;;;;;4970612;28;20480;-69
2023/10/11 04:20:53;;;;;;;20.03;7.87;;;10.70;99.90;;;;;;4969958;28;20450;-68
2023/10/11 04:23:27;;;;;;;19.60;8.00;;;10.70;99.90;;;;;;4970226;28;20533;-67
2023/10/11 04:25:56;;;;;;;18.27;8.40;;;10.70;99.90;;;;;;4970151;28;20501;-70
2023/10/11 04:28:25;;;;;;;21.73;9.53;;;10.70;99.90;;;;;;4968024;28;21017;-71
2023/10/11 04:31:27;;;;;;;20.40;9.70;;;10.70;99.90;;;;;;4969578;28;20977;-69
2023/10/11 04:33:45;;;;;;;17.10;7.50;;;10.80;99.90;;;;;;4963632;28;20477;-71
2023/10/11 04:36:13;;;;;;;17.17;8.07;;;10.70;99.90;;;;;;4970096;28;20532;-70
2023/10/11 04:38:47;;;;;;;21.03;8.53;;;10.70;99.90;;;;;;4966678;28;20444;-71
2023/10/11 04:41:17;;;;;;;18.97;8.40;;;10.70;99.90;;;;;;4969519;28;20523;-71
2023/10/11 04:43:51;;;;;;;16.03;8.07;;;10.60;99.90;;;;;;4970016;28;20527;-72
2023/10/11 04:46:27;;;;;;;18.27;8.83;;;10.70;99.90;;;;;;4970249;28;20461;-70
2023/10/11 04:49:07;;;;;;;19.07;8.07;;;10.70;99.90;;;;;;4971100;28;21034;-69
2023/10/11 04:51:39;;;;;;;17.60;8.00;;;10.60;99.90;;;;;;4969455;28;20861;-72
2023/10/11 04:54:13;;;;;;;17.07;9.17;;;10.70;99.90;;;;;;4969717;28;20566;-72
2023/10/11 04:56:53;;;;;;;17.60;8.30;;;10.60;99.90;;;;;;4969987;28;20527;-71
2023/10/11 04:59:36;;;;;;;18.73;7.83;;;10.60;99.90;;;;;;4969862;28;20496;-70
2023/10/11 05:02:18;;;;;;;20.90;8.93;;;10.60;99.90;;;;;;4969480;28;20444;-67
2023/10/11 05:04:47;;;;;;;18.33;8.80;;;10.50;99.90;;;;;;4968976;28;20476;-72
2023/10/11 05:07:19;;;;;;;19.10;7.67;;;10.50;99.90;;;;;;4969330;28;20462;-72
2023/10/11 05:09:56;;;;;;;14.73;7.27;;;10.50;99.90;;;;;;4969192;28;20475;-72
2023/10/11 05:12:24;;;;;;;20.33;9.10;;;10.50;99.90;;;;;;4968770;28;20875;-72
2023/10/11 05:15:07;;;;;;;20.73;8.60;;;10.70;99.90;;;;;;4969431;28;20947;-69
2023/10/11 05:17:41;;;;;;;22.50;8.73;;;10.80;99.90;;;;;;4969403;28;20455;-70
2023/10/11 05:20:44;;;;;;;16.13;7.17;;;10.90;99.90;;;;;;4968681;28;20432;-68
2023/10/11 05:23:13;;;;;;;16.47;7.03;;;11.00;99.90;;;;;;4969424;28;20459;-71
2023/10/11 05:25:56;;;;;;;19.83;8.13;;;10.80;99.90;;;;;;4968993;28;20448;-71
2023/10/11 05:28:30;;;;;;;16.80;6.97;;;10.80;99.90;;;;;;4969663;28;20825;-69
2023/10/11 05:31:06;;;;;;;15.23;7.10;;;10.80;99.90;;;;;;4969593;28;20823;-70
2023/10/11 05:33:45;;;;;;;16.73;7.97;;;10.70;99.90;;;;;;4969671;28;20467;-70
2023/10/11 05:36:14;;;;;;;20.13;8.50;;;10.70;99.90;;;;;;4969799;28;20477;-71
2023/10/11 05:52:34;;;;;;;16.20;7.60;;;10.70;99.90;;;;;;4971797;28;20511;-71
2023/10/11 05:55:06;;;;;;;15.70;7.40;;;10.70;99.90;;;;;;4970513;28;20452;-71
2023/10/11 05:57:34;;;;;;;17.87;8.77;;;10.80;99.90;;;;;;4972816;28;20461;-71
2023/10/11 06:00:10;;;;;;;18.00;8.30;;;10.80;99.90;;;;;;4973144;28;20919;-72
2023/10/11 06:02:47;;;;;;;19.00;8.30;;;10.80;99.90;;;;;;4972498;28;20704;-71
2023/10/11 06:05:17;;;;;;;16.87;8.10;;;10.80;99.90;;;;;;4972838;28;20445;-71
2023/10/11 06:07:45;;;;;;;17.10;6.90;;;10.90;99.90;;;;;;4973007;28;20442;-71
2023/10/11 06:10:19;;;;;;;15.90;7.73;;;10.80;99.90;;;;;;4972780;28;20542;-71
2023/10/11 06:12:47;;;;;;;19.70;8.10;;;10.90;99.90;;;;;;4972570;28;20498;-71
2023/10/11 06:15:19;;;;;;;19.27;7.90;;;10.80;99.90;;;;;;4972908;28;20457;-72
2023/10/11 06:17:49;;;;;;;20.77;8.67;;;10.80;99.90;;;;;;4972976;28;20445;-71
2023/10/11 06:20:26;;;;;;;16.80;8.17;;;10.90;99.90;;;;;;4972757;28;20445;-71
2023/10/11 06:22:56;;;;;;;15.53;7.60;;;11.00;99.90;;;;;;4972165;28;21000;-70
2023/10/11 06:25:49;;;;;;;18.50;7.80;;;11.00;99.90;;;;;;4972805;28;20455;-70
2023/10/11 06:28:13;;;;;;;17.13;7.83;;;11.10;99.90;;;;;;4972458;28;20453;-70
2023/10/11 06:30:46;;;;;;;17.17;7.70;;;11.10;99.90;;;;;;4972530;28;20541;-68
2023/10/11 06:33:21;;;;;;;14.97;8.40;;;11.20;99.90;;;;;;4972462;28;20917;-71
2023/10/11 06:35:50;;;;;;;18.60;7.67;;;11.20;99.90;;;;;;4975292;28;20472;-72
2023/10/11 06:38:18;;;;;;;16.33;7.43;;;11.20;99.90;;;;;;4972728;28;20440;-70
2023/10/11 06:40:53;;;;;;;16.73;8.07;;;11.30;99.90;;;;;;4974667;28;20533;-71
2023/10/11 06:43:23;;;;;;;17.23;8.13;;;11.40;99.90;;;;;;4974633;28;21009;-71
2023/10/11 06:45:51;;;;;;;19.90;8.93;;;11.40;99.90;;;;;;4974376;28;20460;-71
2023/10/11 06:48:22;;;;;;;19.30;8.13;;;11.50;99.90;;;;;;4974583;28;20443;-71
2023/10/11 06:50:52;;;;;;;16.17;7.67;;;11.50;99.90;;;;;;4976634;28;20510;-71
2023/10/11 06:53:20;;;;;;;21.83;11.60;;;11.50;99.90;;;;;;4973775;28;20486;-72
2023/10/11 06:55:50;;;;;;;16.80;8.77;;;11.60;99.90;;;;;;4972327;28;20514;-72
2023/10/11 06:58:19;;;;;;;23.03;8.20;;;11.60;99.90;;;;;;4972264;28;20469;-71
2023/10/11 07:00:48;;;;;;;16.60;9.13;;;11.80;99.90;;;;;;4971555;28;20458;-71
2023/10/11 07:03:27;;;;;;;17.50;7.60;;;11.90;99.90;;;;;;4971632;28;20468;-71
2023/10/11 07:05:59;;;;;;;14.37;7.53;;;11.90;99.90;;;;;;4972239;28;20498;-71
2023/10/11 07:08:35;;;;;;;20.77;7.70;;;12.00;99.90;;;;;;4971925;28;20515;-72
2023/10/11 07:11:16;;;;;;;18.73;7.97;;;12.10;99.90;;;;;;4971523;28;20539;-71
2023/10/11 07:13:54;;;;;;;15.83;8.03;;;12.30;99.90;;;;;;4971541;28;20472;-71
2023/10/11 07:16:27;;;;;;;17.97;7.23;;;12.50;99.90;;;;;;4971926;28;20532;-69
2023/10/11 07:18:57;;;;;;;16.20;7.17;;;12.70;99.90;;;;;;4972008;28;20500;-71
2023/10/11 07:21:48;;;;;;;18.33;8.00;;;12.80;99.90;;;;;;4971377;28;20436;-70
2023/10/11 07:24:38;;;;;;;19.73;7.37;;;13.10;99.90;;;;;;4971363;28;20518;-71
2023/10/11 07:27:08;;;;;;;15.80;7.10;;;13.30;99.90;;;;;;4971623;28;20453;-71
2023/10/11 07:29:39;;;;;;;19.90;7.00;;;13.40;99.90;;;;;;4971598;28;20479;-71
2023/10/11 07:32:09;;;;;;;12.90;6.50;;;13.50;99.90;;;;;;4970978;28;20507;-71
2023/10/11 07:34:41;;;;;;;20.60;7.27;;;13.60;99.90;;;;;;4971208;28;20460;-71
2023/10/11 07:37:12;;;;;;;18.33;7.40;;;13.70;99.90;;;;;;4971502;28;20533;-72
2023/10/11 07:39:41;;;;;;;20.77;7.00;;;13.90;99.90;;;;;;4964449;28;20466;-71
2023/10/11 07:42:18;;;;;;;19.10;8.00;;;13.90;99.90;;;;;;4969771;28;20439;-70
2023/10/11 07:44:50;;;;;;;18.03;7.73;;;14.00;99.90;;;;;;4971179;28;20815;-71
2023/10/11 07:47:25;;;;;;;17.93;7.57;;;14.20;99.90;;;;;;4970974;28;20449;-71
2023/10/11 07:49:54;;;;;;;15.70;7.10;;;14.30;99.90;;;;;;4971038;28;20530;-72
2023/10/11 07:52:24;;;;;;;15.60;6.63;;;14.60;99.90;;;;;;4970416;28;20456;-70
2023/10/11 07:54:52;;;;;;;13.47;6.50;;;14.70;99.90;;;;;;4971111;28;20440;-71
2023/10/11 07:57:22;;;;;;;14.40;6.77;;;14.90;99.90;;;;;;4970890;28;20513;-71
2023/10/11 07:59:51;;;;;;;18.60;7.10;;;15.20;99.90;;;;;;4970345;28;21177;-72
2023/10/11 08:02:31;;;;;;;14.50;5.80;;;15.30;99.90;;;;;;4970408;28;20450;-71
2023/10/11 08:04:59;;;;;;;13.70;6.00;;;15.40;99.90;;;;;;4970914;28;20556;-72
2023/10/11 08:07:29;;;;;;;13.60;6.10;;;15.50;99.90;;;;;;4970646;28;20444;-71
2023/10/11 08:09:57;;;;;;;17.17;6.60;;;15.60;99.90;;;;;;4970429;28;20569;-72
2023/10/11 08:12:25;;;;;;;16.37;7.50;;;15.80;99.90;;;;;;4970475;28;20638;-72
2023/10/11 08:14:56;;;;;;;17.73;6.90;;;16.10;99.90;;;;;;4970567;28;21041;-72
2023/10/11 08:17:28;;;;;;;16.87;6.90;;;16.20;99.90;;;;;;4970640;28;20451;-72
2023/10/11 08:19:56;;;;;;;15.23;6.50;;;16.40;99.90;;;;;;4970580;28;20443;-72
2023/10/11 08:22:24;;;;;;;19.30;6.07;;;16.50;99.90;;;;;;4969797;28;20510;-71
2023/10/11 08:24:56;;;;;;;16.37;6.10;;;16.70;99.90;;;;;;4970639;28;20510;-72
2023/10/11 08:27:28;;;;;;;17.33;6.57;;;16.90;99.90;;;;;;4970709;28;20454;-71
2023/10/11 08:30:07;;;;;;;15.60;7.20;;;17.00;99.90;;;;;;4970384;28;20491;-72
2023/10/11 08:32:38;;;;;;;15.70;6.23;;;17.20;99.90;;;;;;4970001;28;20498;-72
2023/10/11 08:35:09;;;;;;;17.60;6.70;;;17.40;99.90;;;;;;4970377;28;20448;-71
2023/10/11 08:37:37;;;;;;;14.20;5.30;;;17.60;99.90;;;;;;4970703;28;20502;-72
2023/10/11 08:40:19;;;;;;;12.53;5.17;;;17.80;99.90;;;;;;4970376;28;20551;-72
2023/10/11 08:42:49;;;;;;;14.37;5.50;;;18.00;99.90;;;;;;4969770;28;20963;-72
2023/10/11 08:45:22;;;;;;;16.27;6.03;;;18.30;99.90;;;;;;4970035;28;20459;-72
2023/10/11 08:47:50;;;;;;;17.27;6.27;;;18.50;99.90;;;;;;4970113;28;20455;-72
2023/10/11 08:50:19;;;;;;;13.90;5.43;;;18.80;99.90;;;;;;4969972;28;20982;-71
2023/10/11 08:52:47;;;;;;;18.20;6.17;;;18.90;99.90;;;;;;4969666;28;20546;-72
2023/10/11 08:55:19;;;;;;;18.83;6.30;;;19.10;99.90;;;;;;4970123;28;20439;-72
2023/10/11 08:57:48;;;;;;;16.80;5.23;;;19.20;99.90;;;;;;4970154;28;20443;-72
2023/10/11 09:00:29;;;;;;;14.10;5.90;;;19.40;99.90;;;;;;4969987;28;20502;-72
2023/10/11 09:02:58;;;;;;;12.37;5.87;;;19.60;99.90;;;;;;4969681;28;20475;-71
2023/10/11 09:05:42;;;;;;;14.43;6.30;;;19.80;99.90;;;;;;4969868;28;20455;-72
2023/10/11 09:08:22;;;;;;;12.40;5.00;;;20.00;99.90;;;;;;4970068;28;20487;-72
2023/10/11 09:10:51;;;;;;;13.67;6.40;;;20.20;99.90;;;;;;4969745;28;20578;-71
2023/10/11 09:13:26;;;;;;;14.20;4.90;;;20.40;99.90;;;;;;4973607;28;20598;-71
2023/10/11 09:15:55;;;;;;;13.10;5.67;;;20.50;99.90;;;;;;4974097;28;20438;-72
2023/10/11 09:18:25;;;;;;;22.33;6.30;;;20.60;99.90;;;;;;4973872;28;20451;-71
2023/10/11 09:21:08;;;;;;;17.50;5.10;;;20.90;99.90;;;;;;4973461;28;21016;-72
2023/10/11 09:23:37;;;;;;;15.17;5.43;;;21.30;99.90;;;;;;4973657;28;20490;-72
2023/10/11 09:26:08;;;;;;;12.50;4.77;;;21.60;99.90;;;;;;4974110;28;20451;-72
2023/10/11 09:28:40;;;;;;;15.80;5.53;;;21.90;99.40;;;;;;4973705;28;20495;-72
2023/10/11 09:31:11;;;;;;;12.93;5.60;;;22.30;97.90;;;;;;4973344;28;20486;-72
2023/10/11 09:33:41;;;;;;;14.47;5.93;;;22.50;97.40;;;;;;4973403;28;20465;-72
2023/10/11 09:36:12;;;;;;;14.00;5.90;;;23.00;95.00;;;;;;4973800;28;20784;-72
2023/10/11 09:38:41;;;;;;;15.97;5.00;;;23.20;92.60;;;;;;4973698;28;20471;-71
2023/10/11 09:41:10;;;;;;;15.37;5.03;;;23.30;91.80;;;;;;4973134;28;20507;-72
2023/10/11 09:43:44;;;;;;;16.50;6.40;;;23.20;90.90;;;;;;4973400;28;20471;-72
2023/10/11 09:46:14;;;;;;;16.20;5.30;;;23.50;90.50;;;;;;4973878;28;20535;-72
2023/10/11 09:48:43;;;;;;;16.83;5.67;;;23.80;88.30;;;;;;4973883;28;20502;-71
2023/10/11 09:51:14;;;;;;;15.63;5.00;;;24.00;85.60;;;;;;4973226;28;20538;-71
2023/10/11 09:53:49;;;;;;;14.67;5.37;;;24.40;83.50;;;;;;4973707;28;20475;-72
2023/10/11 09:56:35;;;;;;;17.93;5.50;;;25.00;81.80;;;;;;4973848;28;20451;-72
2023/10/11 09:59:19;;;;;;;14.33;5.67;;;25.50;78.50;;;;;;4973451;28;20542;-69
2023/10/11 10:01:55;;;;;;;13.90;5.20;;;25.60;77.60;;;;;;4972614;28;20471;-69
2023/10/11 10:04:54;;;;;;;19.43;6.73;;;25.90;74.60;;;;;;4972801;28;20528;-67
2023/10/11 10:07:25;;;;;;;16.20;4.97;;;26.40;71.70;;;;;;4973144;28;20532;-71
2023/10/11 10:09:54;;;;;;;14.53;5.47;;;26.80;69.60;;;;;;4973104;28;20454;-72
2023/10/11 10:12:31;;;;;;;15.47;6.87;;;27.20;65.50;;;;;;4972455;28;20527;-72
2023/10/11 10:15:08;;;;;;;14.23;5.47;;;27.60;64.80;;;;;;4973033;28;20943;-71
2023/10/11 10:17:38;;;;;;;14.23;5.50;;;28.00;61.70;;;;;;4973119;28;20482;-71
2023/10/11 10:20:44;;;;;;;15.30;5.50;;;28.20;61.50;;;;;;4973187;28;20448;-71
2023/10/11 10:23:30;;;;;;;16.47;5.17;;;28.70;58.50;;;;;;4965928;28;20566;-72
2023/10/11 10:26:38;;;;;;;19.17;5.20;;;29.10;57.30;;;;;;4972721;28;20538;-69
2023/10/11 10:29:12;;;;;;;16.73;5.37;;;29.40;55.50;;;;;;4972509;28;21022;-71
2023/10/11 10:32:16;;;;;;;13.60;5.10;;;29.80;55.10;;;;;;4971927;28;20487;-72
2023/10/11 10:34:44;;;;;;;13.17;4.90;;;30.10;52.50;;;;;;4931437;29;20504;-71
2023/10/11 10:37:51;;;;;;;13.97;5.00;;;30.40;51.40;;;;;;4931429;29;20465;-72
2023/10/11 10:40:24;;;;;;;17.00;5.00;;;30.60;51.20;;;;;;4961607;28;20443;-70
2023/10/11 10:43:19;;;;;;;15.20;5.07;;;30.80;50.80;;;;;;4971997;28;20519;-72
2023/10/11 10:45:49;;;;;;;14.30;5.90;;;31.20;47.60;;;;;;4972248;28;20459;-72
2023/10/11 10:48:23;;;;;;;13.37;4.80;;;31.90;47.40;;;;;;4971591;28;20543;-70
2023/10/11 10:50:54;;;;;;;14.50;4.97;;;32.10;45.50;;;;;;4971924;28;20446;-72
2023/10/11 10:53:27;;;;;;;13.20;4.77;;;32.30;45.30;;;;;;4971697;28;21070;-72
2023/10/11 10:55:58;;;;;;;13.00;4.87;;;32.60;43.30;;;;;;4972206;28;20510;-72
2023/10/11 10:58:27;;;;;;;15.23;5.30;;;33.00;43.50;;;;;;4971865;28;20440;-72
2023/10/11 11:00:59;;;;;;;17.67;5.40;;;33.50;42.70;;;;;;4971622;28;20538;-72
2023/10/11 11:03:32;;;;;;;13.20;5.00;;;33.80;42.00;;;;;;4971637;28;20563;-70
2023/10/11 11:06:02;;;;;;;12.77;5.67;;;33.70;42.70;;;;;;4971832;28;20935;-72
2023/10/11 11:08:31;;;;;;;11.07;4.33;;;33.70;41.90;;;;;;4971880;28;20598;-72
2023/10/11 11:11:19;;;;;;;12.37;4.13;;;33.90;41.50;;;;;;4971754;28;20551;-72
2023/10/11 11:13:47;;;;;;;14.00;4.97;;;34.30;40.10;;;;;;4971609;28;21013;-72
2023/10/11 11:16:22;;;;;;;11.30;4.87;;;34.70;41.10;;;;;;4971779;28;20443;-72
2023/10/11 11:18:50;;;;;;;16.50;4.83;;;34.80;40.00;;;;;;4971675;28;20447;-72
2023/10/11 11:21:20;;;;;;;13.17;5.10;;;34.90;40.20;;;;;;4971071;28;20432;-72
2023/10/11 11:23:52;;;;;;;12.23;5.10;;;35.30;39.00;;;;;;4970268;28;20474;-72
2023/10/11 11:26:21;;;;;;;16.40;5.40;;;35.30;37.30;;;;;;4972588;28;20447;-72
2023/10/11 11:29:14;;;;;;;12.20;5.13;;;35.70;35.90;;;;;;4973125;28;21032;-72
2023/10/11 11:31:51;;;;;;;13.33;4.97;;;35.40;36.30;;;;;;4968715;28;20515;-72
2023/10/11 11:34:27;;;;;;;13.20;5.50;;;34.50;36.80;;;;;;4972060;28;21333;-72
2023/10/11 11:36:56;;;;;;;13.97;6.10;;;33.60;38.90;;;;;;4971773;28;20453;-71
2023/10/11 11:39:51;;;;;;;17.60;5.00;;;32.90;40.10;;;;;;4971045;28;20530;-71
2023/10/11 11:42:19;;;;;;;14.83;5.00;;;32.90;40.60;;;;;;4970970;28;20462;-71
2023/10/11 11:44:49;;;;;;;17.60;5.87;;;32.30;40.70;;;;;;4971393;28;20877;-72
2023/10/11 11:47:21;;;;;;;13.67;5.87;;;32.70;40.70;;;;;;4971345;28;20448;-71
2023/10/11 11:49:53;;;;;;;18.23;5.30;;;32.20;41.10;;;;;;4971626;28;20506;-71
2023/10/11 11:52:21;;;;;;;16.97;5.53;;;31.80;42.40;;;;;;4970505;28;20518;-71
2023/10/11 11:54:50;;;;;;;14.63;6.30;;;31.80;43.00;;;;;;4971097;28;20466;-72
2023/10/11 11:57:17;;;;;;;17.70;5.10;;;32.50;41.70;;;;;;4971017;28;20891;-71
2023/10/11 11:59:45;;;;;;;14.80;4.60;;;32.50;41.80;;;;;;4971376;28;20463;-72
2023/10/11 12:02:17;;;;;;;15.40;5.10;;;33.30;41.00;;;;;;4970954;28;20443;-71
2023/10/11 12:04:48;;;;;;;16.63;4.73;;;33.70;41.20;;;;;;4971060;28;20562;-72
2023/10/11 12:07:24;;;;;;;14.13;4.90;;;34.50;40.50;;;;;;5082587;28;21052;-62
2023/10/11 12:09:55;;;;;;;13.00;4.77;;;34.80;38.10;;;;;;5069819;28;20532;-62
2023/10/11 12:12:31;;;;;;;14.50;5.40;;;35.30;38.80;;;;;;5065682;28;20459;-62
2023/10/11 12:15:02;;;;;;;12.23;4.40;;;36.10;39.20;;;;;;5066186;28;20471;-62
2023/10/11 12:17:30;;;;;;;12.50;4.57;;;36.30;36.40;;;;;;5065763;28;20813;-62
2023/10/11 12:19:59;;;;;;;14.93;4.70;;;36.40;35.40;;;;;;5065795;28;20443;-63
2023/10/11 12:22:29;;;;;;;13.27;4.60;;;34.90;36.60;;;;;;5057045;28;20440;-63
2023/10/11 12:24:59;;;;;;;13.27;4.53;;;34.10;37.90;;;;;;5065825;28;20439;-62
2023/10/11 12:27:28;;;;;;;15.60;4.40;;;33.70;38.60;;;;;;5065282;28;20992;-63
2023/10/11 12:29:56;;;;;;;13.03;4.83;;;34.20;38.00;;;;;;5057348;28;20942;-63
2023/10/11 12:32:36;;;;;;;13.27;3.97;;;34.10;37.40;;;;;;5048475;28;20451;-63
2023/10/11 12:35:07;;;;;;;14.80;4.17;;;33.30;38.50;;;;;;5059247;28;20440;-63
2023/10/11 12:37:40;;;;;;;16.63;4.67;;;33.10;38.50;;;;;;5056142;28;20990;-61
2023/10/11 12:40:13;;;;;;;15.37;4.77;;;32.40;39.50;;;;;;5058462;28;20468;-61
2023/10/11 12:42:44;;;;;;;11.87;4.40;;;31.30;41.00;;;;;;5061585;28;20840;-63
2023/10/11 12:45:16;;;;;;;12.23;4.10;;;30.60;42.60;;;;;;5060934;28;20531;-61
2023/10/11 12:47:45;;;;;;;13.27;4.20;;;29.60;43.40;;;;;;5052174;28;20472;-62
2023/10/11 12:50:14;;;;;;;16.60;4.90;;;29.00;46.60;;;;;;5055075;28;20533;-62
2023/10/11 12:52:45;;;;;;;13.60;4.40;;;28.70;47.80;;;;;;5063861;28;20888;-62
2023/10/11 12:55:13;;;;;;;14.27;4.17;;;28.30;47.40;;;;;;5065432;23;20494;-69
2023/10/11 12:57:44;;;;;;;12.77;4.33;;;28.20;48.20;;;;;;5053808;28;20455;-70
2023/10/11 13:00:28;;;;;;;12.90;3.63;;;28.00;45.80;;;;;;5061269;28;20984;-70
2023/10/11 13:03:15;;;;;;;13.00;3.93;;;27.90;45.90;;;;;;5056328;28;20478;-70
2023/10/11 13:05:45;;;;;;;13.00;3.97;;;27.80;48.90;;;;;;5054015;28;20945;-70
2023/10/11 13:08:16;;;;;;;10.80;3.90;;;27.80;48.10;;;;;;5052456;28;21072;-70
2023/10/11 13:10:45;;;;;;;11.83;3.83;;;27.70;49.70;;;;;;5055061;28;20552;-69
2023/10/11 13:13:15;;;;;;;14.83;4.40;;;27.90;48.70;;;;;;5052403;28;20470;-69
2023/10/11 13:15:55;;;;;;;10.50;3.73;;;28.00;47.40;;;;;;5057862;28;20439;-69
2023/10/11 13:18:24;;;;;;;11.27;4.03;;;28.10;45.90;;;;;;5048348;28;20444;-70
2023/10/11 13:20:53;;;;;;;13.20;4.00;;;28.00;43.40;;;;;;5040984;28;20459;-69